Terminal Aerodrome Forecast
Issued by NWS Sioux Falls, SD

Home | Current Version | Previous Version | Graphics & Text | Print | Product List | Glossary On
Versions: 1 2 3 4 5 6 7 8 9 10 11 12 13 14 15 16 17 18 19 20 21 22 23 24 25
000
FTUS43 KFSD 281735
TAFSUX
TAF
KSUX 281735Z 2818/2918 19010KT P6SM BKN200
     FM290100 30010KT P6SM BKN200
     FM290200 33023G34KT P6SM BKN020
     FM291700 33017G28KT P6SM BKN025=

USA.gov is the U.S. government's official web portal to all federal, state and local government web resources and services.